sensor_id;sensor_type;location;lat;lon;timestamp;P1;durP1;ratioP1;P2;durP2;ratioP2
52878;SDS011;38747;53.140;6.498;2023-03-31T00:00:45;20.33;;;2.10;;
52878;SDS011;38747;53.140;6.498;2023-03-31T00:03:15;17.75;;;2.28;;
52878;SDS011;38747;53.140;6.498;2023-03-31T00:05:45;17.92;;;2.55;;
52878;SDS011;38747;53.140;6.498;2023-03-31T00:08:19;19.88;;;2.75;;
52878;SDS011;38747;53.140;6.498;2023-03-31T00:10:45;24.70;;;3.17;;
52878;SDS011;38747;53.140;6.498;2023-03-31T00:13:12;23.33;;;2.80;;
52878;SDS011;38747;53.140;6.498;2023-03-31T00:15:38;22.17;;;2.85;;
52878;SDS011;38747;53.140;6.498;2023-03-31T00:18:04;23.77;;;2.97;;
52878;SDS011;38747;53.140;6.498;2023-03-31T00:20:30;23.40;;;2.73;;
52878;SDS011;38747;53.140;6.498;2023-03-31T00:22:57;22.13;;;2.72;;
52878;SDS011;38747;53.140;6.498;2023-03-31T00:25:25;21.50;;;3.03;;
52878;SDS011;38747;53.140;6.498;2023-03-31T00:27:51;17.15;;;2.95;;
52878;SDS011;38747;53.140;6.498;2023-03-31T00:30:17;22.23;;;2.47;;
52878;SDS011;38747;53.140;6.498;2023-03-31T00:32:43;23.58;;;2.92;;
52878;SDS011;38747;53.140;6.498;2023-03-31T00:35:09;21.23;;;2.78;;
52878;SDS011;38747;53.140;6.498;2023-03-31T00:37:35;22.42;;;2.90;;
52878;SDS011;38747;53.140;6.498;2023-03-31T00:40:01;22.10;;;2.60;;
52878;SDS011;38747;53.140;6.498;2023-03-31T00:42:38;24.98;;;3.58;;
52878;SDS011;38747;53.140;6.498;2023-03-31T00:47:41;17.90;;;2.72;;
52878;SDS011;38747;53.140;6.498;2023-03-31T00:50:16;20.20;;;2.50;;
52878;SDS011;38747;53.140;6.498;2023-03-31T00:52:46;22.73;;;2.75;;
52878;SDS011;38747;53.140;6.498;2023-03-31T00:55:16;26.90;;;3.05;;
52878;SDS011;38747;53.140;6.498;2023-03-31T00:57:48;20.52;;;2.80;;
52878;SDS011;38747;53.140;6.498;2023-03-31T01:00:17;25.38;;;3.10;;
52878;SDS011;38747;53.140;6.498;2023-03-31T01:02:47;19.00;;;3.03;;
52878;SDS011;38747;53.140;6.498;2023-03-31T01:05:31;20.42;;;3.22;;
52878;SDS011;38747;53.140;6.498;2023-03-31T01:08:01;16.98;;;2.50;;
52878;SDS011;38747;53.140;6.498;2023-03-31T01:10:29;16.75;;;2.92;;
52878;SDS011;38747;53.140;6.498;2023-03-31T01:13:05;18.33;;;2.60;;
52878;SDS011;38747;53.140;6.498;2023-03-31T01:15:36;24.03;;;2.70;;
52878;SDS011;38747;53.140;6.498;2023-03-31T01:18:03;22.65;;;3.80;;
52878;SDS011;38747;53.140;6.498;2023-03-31T01:36:45;16.80;;;2.65;;
52878;SDS011;38747;53.140;6.498;2023-03-31T01:42:11;17.63;;;3.33;;
52878;SDS011;38747;53.140;6.498;2023-03-31T01:45:10;24.15;;;2.55;;
52878;SDS011;38747;53.140;6.498;2023-03-31T01:48:01;20.02;;;2.45;;
52878;SDS011;38747;53.140;6.498;2023-03-31T01:53:14;19.83;;;2.60;;
52878;SDS011;38747;53.140;6.498;2023-03-31T01:58:24;20.75;;;2.88;;
52878;SDS011;38747;53.140;6.498;2023-03-31T02:01:05;17.50;;;2.63;;
52878;SDS011;38747;53.140;6.498;2023-03-31T02:03:42;18.48;;;2.50;;
52878;SDS011;38747;53.140;6.498;2023-03-31T02:06:13;22.05;;;2.63;;
52878;SDS011;38747;53.140;6.498;2023-03-31T02:08:48;16.20;;;2.70;;
52878;SDS011;38747;53.140;6.498;2023-03-31T02:11:30;17.75;;;2.40;;
52878;SDS011;38747;53.140;6.498;2023-03-31T02:13:57;19.20;;;2.63;;
52878;SDS011;38747;53.140;6.498;2023-03-31T02:16:27;17.60;;;2.20;;
52878;SDS011;38747;53.140;6.498;2023-03-31T02:18:58;16.73;;;2.20;;
52878;SDS011;38747;53.140;6.498;2023-03-31T02:21:31;20.20;;;2.10;;
52878;SDS011;38747;53.140;6.498;2023-03-31T02:24:01;22.60;;;2.85;;
52878;SDS011;38747;53.140;6.498;2023-03-31T02:26:30;16.33;;;2.30;;
52878;SDS011;38747;53.140;6.498;2023-03-31T02:29:01;16.33;;;2.08;;
52878;SDS011;38747;53.140;6.498;2023-03-31T02:31:46;20.67;;;2.63;;
52878;SDS011;38747;53.140;6.498;2023-03-31T02:34:21;18.80;;;2.07;;
52878;SDS011;38747;53.140;6.498;2023-03-31T02:36:47;13.48;;;2.00;;
52878;SDS011;38747;53.140;6.498;2023-03-31T02:39:18;18.05;;;2.55;;
52878;SDS011;38747;53.140;6.498;2023-03-31T02:41:51;16.35;;;2.70;;
52878;SDS011;38747;53.140;6.498;2023-03-31T02:44:17;20.85;;;2.80;;
52878;SDS011;38747;53.140;6.498;2023-03-31T02:46:43;14.93;;;2.00;;
52878;SDS011;38747;53.140;6.498;2023-03-31T02:49:09;15.93;;;2.60;;
52878;SDS011;38747;53.140;6.498;2023-03-31T03:11:30;24.77;;;3.20;;
52878;SDS011;38747;53.140;6.498;2023-03-31T03:14:25;18.87;;;2.30;;
52878;SDS011;38747;53.140;6.498;2023-03-31T03:16:53;14.95;;;2.08;;
52878;SDS011;38747;53.140;6.498;2023-03-31T03:19:28;19.25;;;2.78;;
52878;SDS011;38747;53.140;6.498;2023-03-31T03:21:53;14.70;;;1.90;;
52878;SDS011;38747;53.140;6.498;2023-03-31T03:24:19;12.93;;;2.15;;
52878;SDS011;38747;53.140;6.498;2023-03-31T03:26:46;16.17;;;2.10;;
52878;SDS011;38747;53.140;6.498;2023-03-31T03:29:12;13.93;;;2.60;;
52878;SDS011;38747;53.140;6.498;2023-03-31T03:31:39;17.02;;;2.40;;
52878;SDS011;38747;53.140;6.498;2023-03-31T03:34:05;16.35;;;2.67;;
52878;SDS011;38747;53.140;6.498;2023-03-31T03:36:31;13.05;;;2.30;;
52878;SDS011;38747;53.140;6.498;2023-03-31T03:38:58;14.30;;;2.50;;
52878;SDS011;38747;53.140;6.498;2023-03-31T03:41:24;15.93;;;2.47;;
52878;SDS011;38747;53.140;6.498;2023-03-31T03:43:50;14.13;;;2.40;;
52878;SDS011;38747;53.140;6.498;2023-03-31T03:46:16;16.13;;;2.10;;
52878;SDS011;38747;53.140;6.498;2023-03-31T03:48:41;17.90;;;2.30;;
52878;SDS011;38747;53.140;6.498;2023-03-31T03:51:07;17.53;;;2.60;;
52878;SDS011;38747;53.140;6.498;2023-03-31T03:53:32;10.13;;;2.00;;
52878;SDS011;38747;53.140;6.498;2023-03-31T03:55:58;14.67;;;2.40;;
52878;SDS011;38747;53.140;6.498;2023-03-31T03:58:24;10.70;;;2.20;;
52878;SDS011;38747;53.140;6.498;2023-03-31T04:00:49;12.20;;;2.67;;
52878;SDS011;38747;53.140;6.498;2023-03-31T04:03:15;13.93;;;2.70;;
52878;SDS011;38747;53.140;6.498;2023-03-31T04:05:42;14.67;;;2.60;;
52878;SDS011;38747;53.140;6.498;2023-03-31T04:08:07;16.42;;;2.47;;
52878;SDS011;38747;53.140;6.498;2023-03-31T04:10:34;14.63;;;3.03;;
52878;SDS011;38747;53.140;6.498;2023-03-31T04:13:00;13.50;;;3.20;;
52878;SDS011;38747;53.140;6.498;2023-03-31T04:15:25;14.40;;;3.03;;
52878;SDS011;38747;53.140;6.498;2023-03-31T04:17:51;11.50;;;2.77;;
52878;SDS011;38747;53.140;6.498;2023-03-31T04:20:19;12.73;;;3.30;;
52878;SDS011;38747;53.140;6.498;2023-03-31T04:22:45;12.57;;;3.30;;
52878;SDS011;38747;53.140;6.498;2023-03-31T04:25:14;12.63;;;3.20;;
52878;SDS011;38747;53.140;6.498;2023-03-31T04:27:50;16.03;;;3.53;;
52878;SDS011;38747;53.140;6.498;2023-03-31T04:30:19;10.73;;;3.42;;
52878;SDS011;38747;53.140;6.498;2023-03-31T04:32:55;10.93;;;4.10;;
52878;SDS011;38747;53.140;6.498;2023-03-31T04:35:23;13.23;;;3.67;;
52878;SDS011;38747;53.140;6.498;2023-03-31T04:37:50;15.57;;;3.88;;
52878;SDS011;38747;53.140;6.498;2023-03-31T04:40:22;11.27;;;3.90;;
52878;SDS011;38747;53.140;6.498;2023-03-31T04:42:49;13.27;;;3.80;;
52878;SDS011;38747;53.140;6.498;2023-03-31T04:45:15;14.25;;;3.80;;
52878;SDS011;38747;53.140;6.498;2023-03-31T04:47:41;12.55;;;4.50;;
52878;SDS011;38747;53.140;6.498;2023-03-31T04:50:07;16.83;;;4.35;;
52878;SDS011;38747;53.140;6.498;2023-03-31T04:52:35;16.10;;;4.57;;
52878;SDS011;38747;53.140;6.498;2023-03-31T04:55:01;16.30;;;4.55;;
52878;SDS011;38747;53.140;6.498;2023-03-31T04:57:27;12.35;;;4.07;;
52878;SDS011;38747;53.140;6.498;2023-03-31T04:59:53;17.13;;;4.80;;
52878;SDS011;38747;53.140;6.498;2023-03-31T05:02:19;14.70;;;4.65;;
52878;SDS011;38747;53.140;6.498;2023-03-31T05:04:50;14.57;;;4.70;;
52878;SDS011;38747;53.140;6.498;2023-03-31T05:07:19;14.23;;;4.45;;
52878;SDS011;38747;53.140;6.498;2023-03-31T05:09:45;11.93;;;4.33;;
52878;SDS011;38747;53.140;6.498;2023-03-31T05:12:11;13.50;;;4.70;;
52878;SDS011;38747;53.140;6.498;2023-03-31T05:14:36;18.10;;;4.33;;
52878;SDS011;38747;53.140;6.498;2023-03-31T05:17:02;14.98;;;5.03;;
52878;SDS011;38747;53.140;6.498;2023-03-31T05:19:27;13.83;;;4.30;;
52878;SDS011;38747;53.140;6.498;2023-03-31T05:21:53;15.38;;;4.70;;
52878;SDS011;38747;53.140;6.498;2023-03-31T05:24:18;18.73;;;4.60;;
52878;SDS011;38747;53.140;6.498;2023-03-31T05:26:45;15.55;;;4.45;;
52878;SDS011;38747;53.140;6.498;2023-03-31T05:29:16;13.68;;;4.57;;
52878;SDS011;38747;53.140;6.498;2023-03-31T05:31:45;12.30;;;3.70;;
52878;SDS011;38747;53.140;6.498;2023-03-31T05:34:11;15.25;;;4.50;;
52878;SDS011;38747;53.140;6.498;2023-03-31T05:36:38;14.13;;;3.90;;
52878;SDS011;38747;53.140;6.498;2023-03-31T05:39:04;11.50;;;3.90;;
52878;SDS011;38747;53.140;6.498;2023-03-31T05:41:29;14.95;;;4.00;;
52878;SDS011;38747;53.140;6.498;2023-03-31T05:43:55;15.02;;;4.13;;
52878;SDS011;38747;53.140;6.498;2023-03-31T05:46:21;12.73;;;4.23;;
52878;SDS011;38747;53.140;6.498;2023-03-31T05:48:46;13.70;;;4.20;;
52878;SDS011;38747;53.140;6.498;2023-03-31T05:51:12;13.45;;;3.95;;
52878;SDS011;38747;53.140;6.498;2023-03-31T05:53:38;13.20;;;4.10;;
52878;SDS011;38747;53.140;6.498;2023-03-31T05:56:04;13.85;;;3.97;;
52878;SDS011;38747;53.140;6.498;2023-03-31T05:58:32;12.68;;;3.50;;
52878;SDS011;38747;53.140;6.498;2023-03-31T06:01:00;10.90;;;3.28;;
52878;SDS011;38747;53.140;6.498;2023-03-31T06:03:37;11.77;;;3.43;;
52878;SDS011;38747;53.140;6.498;2023-03-31T06:06:05;11.40;;;3.30;;
52878;SDS011;38747;53.140;6.498;2023-03-31T06:08:32;12.82;;;3.63;;
52878;SDS011;38747;53.140;6.498;2023-03-31T06:10:59;11.75;;;3.25;;
52878;SDS011;38747;53.140;6.498;2023-03-31T06:13:27;12.57;;;3.63;;
52878;SDS011;38747;53.140;6.498;2023-03-31T06:15:54;10.33;;;3.20;;
52878;SDS011;38747;53.140;6.498;2023-03-31T06:18:24;13.88;;;3.75;;
52878;SDS011;38747;53.140;6.498;2023-03-31T06:20:52;10.48;;;3.35;;
52878;SDS011;38747;53.140;6.498;2023-03-31T06:23:19;13.03;;;3.60;;
52878;SDS011;38747;53.140;6.498;2023-03-31T06:25:44;11.70;;;3.75;;
52878;SDS011;38747;53.140;6.498;2023-03-31T06:28:10;10.23;;;3.33;;
52878;SDS011;38747;53.140;6.498;2023-03-31T06:30:36;9.93;;;3.22;;
52878;SDS011;38747;53.140;6.498;2023-03-31T06:33:01;9.00;;;3.05;;
52878;SDS011;38747;53.140;6.498;2023-03-31T06:35:27;10.87;;;4.10;;
52878;SDS011;38747;53.140;6.498;2023-03-31T06:37:53;12.98;;;3.60;;
52878;SDS011;38747;53.140;6.498;2023-03-31T06:40:18;9.00;;;2.90;;
52878;SDS011;38747;53.140;6.498;2023-03-31T06:42:44;10.67;;;3.47;;
52878;SDS011;38747;53.140;6.498;2023-03-31T06:45:10;11.77;;;3.90;;
52878;SDS011;38747;53.140;6.498;2023-03-31T06:47:35;10.17;;;3.37;;
52878;SDS011;38747;53.140;6.498;2023-03-31T06:50:03;10.50;;;3.05;;
52878;SDS011;38747;53.140;6.498;2023-03-31T06:52:30;11.98;;;3.10;;
52878;SDS011;38747;53.140;6.498;2023-03-31T06:54:56;10.13;;;3.55;;
52878;SDS011;38747;53.140;6.498;2023-03-31T06:57:21;10.53;;;3.23;;
52878;SDS011;38747;53.140;6.498;2023-03-31T06:59:47;7.88;;;2.90;;
52878;SDS011;38747;53.140;6.498;2023-03-31T07:02:13;9.57;;;3.00;;
52878;SDS011;38747;53.140;6.498;2023-03-31T07:04:38;10.10;;;2.75;;
52878;SDS011;38747;53.140;6.498;2023-03-31T07:07:04;10.30;;;3.50;;
52878;SDS011;38747;53.140;6.498;2023-03-31T07:09:30;10.90;;;3.05;;
52878;SDS011;38747;53.140;6.498;2023-03-31T07:11:55;10.03;;;3.20;;
52878;SDS011;38747;53.140;6.498;2023-03-31T07:14:21;10.32;;;3.40;;
52878;SDS011;38747;53.140;6.498;2023-03-31T07:16:47;9.57;;;3.30;;
52878;SDS011;38747;53.140;6.498;2023-03-31T07:19:14;10.90;;;3.38;;
52878;SDS011;38747;53.140;6.498;2023-03-31T07:21:40;10.32;;;3.40;;
52878;SDS011;38747;53.140;6.498;2023-03-31T07:24:05;9.33;;;3.50;;
52878;SDS011;38747;53.140;6.498;2023-03-31T07:26:31;8.82;;;3.22;;
52878;SDS011;38747;53.140;6.498;2023-03-31T07:28:57;10.63;;;3.50;;
52878;SDS011;38747;53.140;6.498;2023-03-31T07:31:23;8.57;;;3.25;;
52878;SDS011;38747;53.140;6.498;2023-03-31T07:33:49;9.85;;;3.28;;
52878;SDS011;38747;53.140;6.498;2023-03-31T07:36:15;10.33;;;2.80;;
52878;SDS011;38747;53.140;6.498;2023-03-31T07:38:42;9.15;;;2.70;;
52878;SDS011;38747;53.140;6.498;2023-03-31T07:41:11;8.80;;;2.72;;
52878;SDS011;38747;53.140;6.498;2023-03-31T07:43:38;10.25;;;3.20;;
52878;SDS011;38747;53.140;6.498;2023-03-31T07:46:04;7.93;;;2.78;;
52878;SDS011;38747;53.140;6.498;2023-03-31T07:48:32;7.87;;;2.60;;
52878;SDS011;38747;53.140;6.498;2023-03-31T07:50:58;10.45;;;3.10;;
52878;SDS011;38747;53.140;6.498;2023-03-31T07:53:24;10.48;;;2.90;;
52878;SDS011;38747;53.140;6.498;2023-03-31T07:55:49;10.57;;;2.87;;
52878;SDS011;38747;53.140;6.498;2023-03-31T07:58:15;10.20;;;2.72;;
52878;SDS011;38747;53.140;6.498;2023-03-31T08:00:41;9.27;;;2.60;;
52878;SDS011;38747;53.140;6.498;2023-03-31T08:03:07;8.32;;;2.45;;
52878;SDS011;38747;53.140;6.498;2023-03-31T08:05:33;7.53;;;2.38;;
52878;SDS011;38747;53.140;6.498;2023-03-31T08:07:59;7.73;;;2.50;;
52878;SDS011;38747;53.140;6.498;2023-03-31T08:10:25;8.45;;;2.15;;
52878;SDS011;38747;53.140;6.498;2023-03-31T08:12:51;6.38;;;2.22;;
52878;SDS011;38747;53.140;6.498;2023-03-31T08:15:17;7.50;;;2.28;;
52878;SDS011;38747;53.140;6.498;2023-03-31T08:17:43;9.00;;;2.20;;
52878;SDS011;38747;53.140;6.498;2023-03-31T08:20:09;7.28;;;2.10;;
52878;SDS011;38747;53.140;6.498;2023-03-31T08:22:36;9.10;;;2.20;;
52878;SDS011;38747;53.140;6.498;2023-03-31T08:25:03;10.23;;;2.70;;
52878;SDS011;38747;53.140;6.498;2023-03-31T08:27:37;8.45;;;2.50;;
52878;SDS011;38747;53.140;6.498;2023-03-31T08:30:05;12.47;;;2.40;;
52878;SDS011;38747;53.140;6.498;2023-03-31T08:32:32;9.77;;;2.85;;
52878;SDS011;38747;53.140;6.498;2023-03-31T08:34:59;7.97;;;2.67;;
52878;SDS011;38747;53.140;6.498;2023-03-31T08:37:25;7.93;;;2.55;;
52878;SDS011;38747;53.140;6.498;2023-03-31T08:39:52;7.63;;;3.10;;
52878;SDS011;38747;53.140;6.498;2023-03-31T08:42:26;8.23;;;2.28;;
52878;SDS011;38747;53.140;6.498;2023-03-31T08:44:56;8.25;;;2.80;;
52878;SDS011;38747;53.140;6.498;2023-03-31T08:47:28;9.15;;;2.47;;
52878;SDS011;38747;53.140;6.498;2023-03-31T08:50:03;10.43;;;2.88;;
52878;SDS011;38747;53.140;6.498;2023-03-31T08:52:43;9.27;;;2.63;;
52878;SDS011;38747;53.140;6.498;2023-03-31T08:55:24;11.25;;;2.90;;
52878;SDS011;38747;53.140;6.498;2023-03-31T08:58:16;8.73;;;2.90;;
52878;SDS011;38747;53.140;6.498;2023-03-31T09:01:01;11.52;;;3.60;;
52878;SDS011;38747;53.140;6.498;2023-03-31T09:06:38;12.57;;;2.80;;
52878;SDS011;38747;53.140;6.498;2023-03-31T09:18:12;10.10;;;3.28;;
52878;SDS011;38747;53.140;6.498;2023-03-31T09:20:43;11.00;;;3.00;;
52878;SDS011;38747;53.140;6.498;2023-03-31T09:23:21;11.70;;;2.85;;
52878;SDS011;38747;53.140;6.498;2023-03-31T09:25:47;9.63;;;3.45;;
52878;SDS011;38747;53.140;6.498;2023-03-31T09:28:20;11.13;;;2.85;;
52878;SDS011;38747;53.140;6.498;2023-03-31T09:30:54;8.43;;;2.72;;
52878;SDS011;38747;53.140;6.498;2023-03-31T09:33:27;9.33;;;2.87;;
52878;SDS011;38747;53.140;6.498;2023-03-31T09:35:58;10.70;;;2.90;;
52878;SDS011;38747;53.140;6.498;2023-03-31T09:38:25;10.82;;;2.90;;
52878;SDS011;38747;53.140;6.498;2023-03-31T09:40:58;7.97;;;2.80;;
52878;SDS011;38747;53.140;6.498;2023-03-31T09:43:29;8.68;;;2.80;;
52878;SDS011;38747;53.140;6.498;2023-03-31T09:45:58;10.53;;;2.57;;
52878;SDS011;38747;53.140;6.498;2023-03-31T09:48:31;10.98;;;3.00;;
52878;SDS011;38747;53.140;6.498;2023-03-31T09:51:01;9.13;;;2.97;;
52878;SDS011;38747;53.140;6.498;2023-03-31T09:53:37;8.68;;;2.67;;
52878;SDS011;38747;53.140;6.498;2023-03-31T09:56:36;7.88;;;2.63;;
52878;SDS011;38747;53.140;6.498;2023-03-31T09:59:17;8.87;;;2.60;;
52878;SDS011;38747;53.140;6.498;2023-03-31T10:01:47;10.40;;;2.40;;
52878;SDS011;38747;53.140;6.498;2023-03-31T10:04:20;7.88;;;2.47;;
52878;SDS011;38747;53.140;6.498;2023-03-31T10:06:48;10.98;;;2.42;;
52878;SDS011;38747;53.140;6.498;2023-03-31T10:09:17;10.32;;;2.80;;
52878;SDS011;38747;53.140;6.498;2023-03-31T10:11:52;7.53;;;2.40;;
52878;SDS011;38747;53.140;6.498;2023-03-31T10:14:31;8.23;;;2.63;;
52878;SDS011;38747;53.140;6.498;2023-03-31T10:17:19;8.15;;;2.35;;
52878;SDS011;38747;53.140;6.498;2023-03-31T10:19:51;7.38;;;2.38;;
52878;SDS011;38747;53.140;6.498;2023-03-31T10:24:49;7.87;;;2.30;;
52878;SDS011;38747;53.140;6.498;2023-03-31T10:27:25;9.23;;;2.30;;
52878;SDS011;38747;53.140;6.498;2023-03-31T10:29:54;8.55;;;2.40;;
52878;SDS011;38747;53.140;6.498;2023-03-31T10:34:52;7.95;;;2.40;;
52878;SDS011;38747;53.140;6.498;2023-03-31T10:37:23;8.43;;;1.80;;
52878;SDS011;38747;53.140;6.498;2023-03-31T10:39:57;9.98;;;2.00;;
52878;SDS011;38747;53.140;6.498;2023-03-31T10:42:26;8.05;;;2.05;;
52878;SDS011;38747;53.140;6.498;2023-03-31T10:47:39;6.15;;;1.75;;
52878;SDS011;38747;53.140;6.498;2023-03-31T10:50:14;7.47;;;2.00;;
52878;SDS011;38747;53.140;6.498;2023-03-31T10:52:47;6.70;;;1.77;;
52878;SDS011;38747;53.140;6.498;2023-03-31T10:55:13;8.18;;;1.80;;
52878;SDS011;38747;53.140;6.498;2023-03-31T10:57:55;8.48;;;1.98;;
52878;SDS011;38747;53.140;6.498;2023-03-31T11:05:48;8.07;;;2.30;;
52878;SDS011;38747;53.140;6.498;2023-03-31T11:11:13;8.73;;;2.03;;
52878;SDS011;38747;53.140;6.498;2023-03-31T11:19:44;9.45;;;2.40;;
52878;SDS011;38747;53.140;6.498;2023-03-31T11:25:21;9.57;;;1.73;;
52878;SDS011;38747;53.140;6.498;2023-03-31T11:28:00;8.25;;;2.00;;
52878;SDS011;38747;53.140;6.498;2023-03-31T11:30:54;5.80;;;1.77;;
52878;SDS011;38747;53.140;6.498;2023-03-31T11:41:51;7.47;;;1.70;;
52878;SDS011;38747;53.140;6.498;2023-03-31T11:44:35;9.33;;;1.83;;
52878;SDS011;38747;53.140;6.498;2023-03-31T11:47:07;7.03;;;1.70;;
52878;SDS011;38747;53.140;6.498;2023-03-31T11:49:44;9.77;;;2.20;;
52878;SDS011;38747;53.140;6.498;2023-03-31T11:52:21;8.95;;;1.90;;
52878;SDS011;38747;53.140;6.498;2023-03-31T11:55:15;8.57;;;1.75;;
52878;SDS011;38747;53.140;6.498;2023-03-31T11:57:41;5.87;;;1.73;;
52878;SDS011;38747;53.140;6.498;2023-03-31T12:00:18;8.00;;;1.73;;
52878;SDS011;38747;53.140;6.498;2023-03-31T12:02:56;10.77;;;2.40;;
52878;SDS011;38747;53.140;6.498;2023-03-31T12:05:23;7.70;;;1.60;;
52878;SDS011;38747;53.140;6.498;2023-03-31T12:12:58;7.03;;;2.03;;
52878;SDS011;38747;53.140;6.498;2023-03-31T12:15:49;9.60;;;2.28;;
52878;SDS011;38747;53.140;6.498;2023-03-31T12:18:25;10.03;;;2.13;;
52878;SDS011;38747;53.140;6.498;2023-03-31T12:20:55;9.60;;;2.30;;
52878;SDS011;38747;53.140;6.498;2023-03-31T12:23:30;9.02;;;2.28;;
52878;SDS011;38747;53.140;6.498;2023-03-31T12:26:10;8.73;;;1.83;;
52878;SDS011;38747;53.140;6.498;2023-03-31T12:28:47;8.63;;;1.83;;
52878;SDS011;38747;53.140;6.498;2023-03-31T12:31:18;6.70;;;1.77;;
52878;SDS011;38747;53.140;6.498;2023-03-31T12:33:52;10.73;;;2.00;;
52878;SDS011;38747;53.140;6.498;2023-03-31T12:39:07;7.07;;;2.00;;
52878;SDS011;38747;53.140;6.498;2023-03-31T12:50:14;9.52;;;2.50;;
52878;SDS011;38747;53.140;6.498;2023-03-31T12:55:55;8.57;;;2.55;;
52878;SDS011;38747;53.140;6.498;2023-03-31T13:08:54;8.93;;;2.15;;
52878;SDS011;38747;53.140;6.498;2023-03-31T13:14:16;9.32;;;2.10;;
52878;SDS011;38747;53.140;6.498;2023-03-31T13:16:46;8.68;;;2.60;;
52878;SDS011;38747;53.140;6.498;2023-03-31T13:19:32;9.20;;;2.20;;
52878;SDS011;38747;53.140;6.498;2023-03-31T13:22:00;9.18;;;2.47;;
52878;SDS011;38747;53.140;6.498;2023-03-31T13:24:28;8.13;;;1.87;;
52878;SDS011;38747;53.140;6.498;2023-03-31T13:26:55;12.98;;;2.72;;
52878;SDS011;38747;53.140;6.498;2023-03-31T13:29:24;13.38;;;2.70;;
52878;SDS011;38747;53.140;6.498;2023-03-31T13:34:31;10.38;;;2.47;;
52878;SDS011;38747;53.140;6.498;2023-03-31T13:37:13;12.67;;;2.60;;
52878;SDS011;38747;53.140;6.498;2023-03-31T13:39:55;13.55;;;2.58;;
52878;SDS011;38747;53.140;6.498;2023-03-31T13:45:32;9.30;;;2.25;;
52878;SDS011;38747;53.140;6.498;2023-03-31T13:48:09;15.02;;;2.40;;
52878;SDS011;38747;53.140;6.498;2023-03-31T13:56:57;3.58;;;0.70;;
52878;SDS011;38747;53.140;6.498;2023-03-31T14:05:42;2.83;;;0.50;;
52878;SDS011;38747;53.140;6.498;2023-03-31T14:08:18;4.50;;;0.70;;
52878;SDS011;38747;53.140;6.498;2023-03-31T14:10:51;2.08;;;0.55;;
52878;SDS011;38747;53.140;6.498;2023-03-31T14:13:17;3.93;;;0.70;;
52878;SDS011;38747;53.140;6.498;2023-03-31T14:15:54;5.22;;;0.82;;
52878;SDS011;38747;53.140;6.498;2023-03-31T14:18:29;4.55;;;1.00;;
52878;SDS011;38747;53.140;6.498;2023-03-31T14:21:07;5.03;;;0.90;;
52878;SDS011;38747;53.140;6.498;2023-03-31T14:26:50;5.97;;;1.13;;
52878;SDS011;38747;53.140;6.498;2023-03-31T14:29:54;4.97;;;1.10;;
52878;SDS011;38747;53.140;6.498;2023-03-31T14:38:13;8.77;;;1.60;;
52878;SDS011;38747;53.140;6.498;2023-03-31T14:40:46;6.57;;;1.20;;
52878;SDS011;38747;53.140;6.498;2023-03-31T14:43:20;7.50;;;1.30;;
52878;SDS011;38747;53.140;6.498;2023-03-31T14:45:56;7.18;;;1.30;;
52878;SDS011;38747;53.140;6.498;2023-03-31T14:48:23;6.22;;;1.08;;
52878;SDS011;38747;53.140;6.498;2023-03-31T14:50:55;7.78;;;1.70;;
52878;SDS011;38747;53.140;6.498;2023-03-31T14:53:23;6.40;;;1.20;;
52878;SDS011;38747;53.140;6.498;2023-03-31T14:55:50;5.25;;;1.05;;
52878;SDS011;38747;53.140;6.498;2023-03-31T14:58:37;6.03;;;1.20;;
52878;SDS011;38747;53.140;6.498;2023-03-31T15:01:06;5.55;;;0.95;;
52878;SDS011;38747;53.140;6.498;2023-03-31T15:03:34;6.15;;;1.15;;
52878;SDS011;38747;53.140;6.498;2023-03-31T15:06:05;4.27;;;0.80;;
52878;SDS011;38747;53.140;6.498;2023-03-31T15:08:32;5.45;;;0.82;;
52878;SDS011;38747;53.140;6.498;2023-03-31T15:11:01;3.80;;;0.70;;
52878;SDS011;38747;53.140;6.498;2023-03-31T15:13:43;4.22;;;0.80;;
52878;SDS011;38747;53.140;6.498;2023-03-31T15:16:32;7.22;;;1.05;;
52878;SDS011;38747;53.140;6.498;2023-03-31T15:19:16;3.37;;;0.90;;
52878;SDS011;38747;53.140;6.498;2023-03-31T15:21:45;4.13;;;0.80;;
52878;SDS011;38747;53.140;6.498;2023-03-31T15:24:17;7.97;;;1.10;;
52878;SDS011;38747;53.140;6.498;2023-03-31T15:29:37;5.43;;;1.10;;
52878;SDS011;38747;53.140;6.498;2023-03-31T15:32:14;5.30;;;1.03;;
52878;SDS011;38747;53.140;6.498;2023-03-31T15:34:50;7.32;;;1.30;;
52878;SDS011;38747;53.140;6.498;2023-03-31T15:37:24;4.72;;;1.08;;
52878;SDS011;38747;53.140;6.498;2023-03-31T15:40:03;6.22;;;0.90;;
52878;SDS011;38747;53.140;6.498;2023-03-31T15:42:35;5.30;;;1.05;;
52878;SDS011;38747;53.140;6.498;2023-03-31T15:48:00;5.00;;;0.80;;
52878;SDS011;38747;53.140;6.498;2023-03-31T15:50:28;6.82;;;1.10;;
52878;SDS011;38747;53.140;6.498;2023-03-31T15:52:54;6.27;;;0.90;;
52878;SDS011;38747;53.140;6.498;2023-03-31T15:55:26;4.63;;;1.00;;
52878;SDS011;38747;53.140;6.498;2023-03-31T15:57:55;6.88;;;1.30;;
52878;SDS011;38747;53.140;6.498;2023-03-31T16:03:04;9.05;;;2.40;;
52878;SDS011;38747;53.140;6.498;2023-03-31T16:08:47;6.50;;;1.30;;
52878;SDS011;38747;53.140;6.498;2023-03-31T16:11:22;7.40;;;1.40;;
52878;SDS011;38747;53.140;6.498;2023-03-31T16:13:53;7.32;;;2.53;;
52878;SDS011;38747;53.140;6.498;2023-03-31T16:16:22;6.50;;;1.38;;
52878;SDS011;38747;53.140;6.498;2023-03-31T16:18:50;7.53;;;1.30;;
52878;SDS011;38747;53.140;6.498;2023-03-31T16:21:29;6.50;;;1.40;;
52878;SDS011;38747;53.140;6.498;2023-03-31T16:24:16;9.75;;;1.40;;
52878;SDS011;38747;53.140;6.498;2023-03-31T16:26:47;9.43;;;1.85;;
52878;SDS011;38747;53.140;6.498;2023-03-31T16:29:19;8.18;;;1.60;;
52878;SDS011;38747;53.140;6.498;2023-03-31T16:31:46;9.27;;;1.40;;
52878;SDS011;38747;53.140;6.498;2023-03-31T16:34:12;9.15;;;1.90;;
52878;SDS011;38747;53.140;6.498;2023-03-31T16:36:38;8.07;;;1.33;;
52878;SDS011;38747;53.140;6.498;2023-03-31T16:39:04;8.40;;;1.83;;
52878;SDS011;38747;53.140;6.498;2023-03-31T16:41:34;7.00;;;1.40;;
52878;SDS011;38747;53.140;6.498;2023-03-31T16:44:01;6.47;;;1.25;;
52878;SDS011;38747;53.140;6.498;2023-03-31T16:46:27;8.23;;;1.73;;
52878;SDS011;38747;53.140;6.498;2023-03-31T16:48:53;7.03;;;1.27;;
52878;SDS011;38747;53.140;6.498;2023-03-31T16:51:19;7.65;;;1.27;;
52878;SDS011;38747;53.140;6.498;2023-03-31T16:53:45;8.93;;;1.80;;
52878;SDS011;38747;53.140;6.498;2023-03-31T16:56:12;6.33;;;1.43;;
52878;SDS011;38747;53.140;6.498;2023-03-31T16:58:38;9.65;;;1.70;;
52878;SDS011;38747;53.140;6.498;2023-03-31T17:01:05;10.60;;;2.20;;
52878;SDS011;38747;53.140;6.498;2023-03-31T17:03:32;9.60;;;1.55;;
52878;SDS011;38747;53.140;6.498;2023-03-31T17:06:02;7.18;;;1.40;;
52878;SDS011;38747;53.140;6.498;2023-03-31T17:08:33;4.73;;;1.10;;
52878;SDS011;38747;53.140;6.498;2023-03-31T17:11:09;5.38;;;1.13;;
52878;SDS011;38747;53.140;6.498;2023-03-31T17:13:37;6.45;;;1.20;;
52878;SDS011;38747;53.140;6.498;2023-03-31T17:16:04;6.32;;;1.48;;
52878;SDS011;38747;53.140;6.498;2023-03-31T17:18:30;9.97;;;1.67;;
52878;SDS011;38747;53.140;6.498;2023-03-31T17:21:06;6.57;;;1.40;;
52878;SDS011;38747;53.140;6.498;2023-03-31T17:23:34;6.47;;;1.35;;
52878;SDS011;38747;53.140;6.498;2023-03-31T17:26:00;8.68;;;2.13;;
52878;SDS011;38747;53.140;6.498;2023-03-31T17:28:26;8.67;;;1.63;;
52878;SDS011;38747;53.140;6.498;2023-03-31T17:30:54;7.60;;;2.00;;
52878;SDS011;38747;53.140;6.498;2023-03-31T17:33:19;8.63;;;2.00;;
52878;SDS011;38747;53.140;6.498;2023-03-31T17:35:46;15.20;;;4.70;;
52878;SDS011;38747;53.140;6.498;2023-03-31T17:38:12;28.75;;;9.75;;
52878;SDS011;38747;53.140;6.498;2023-03-31T17:40:38;12.35;;;4.30;;
52878;SDS011;38747;53.140;6.498;2023-03-31T17:43:04;11.07;;;2.25;;